createdAt,value
2019-01-15T00:00:57.564Z,46.30
2019-01-15T00:03:24.675Z,46.30
2019-01-15T00:05:51.769Z,46.20
2019-01-15T00:08:18.884Z,46.30
2019-01-15T00:10:45.941Z,46.30
2019-01-15T00:13:13.040Z,46.20
2019-01-15T00:15:40.149Z,46.90
2019-01-15T00:18:07.220Z,46.30
2019-01-15T00:20:34.299Z,46.20
2019-01-15T00:23:01.380Z,46.20
2019-01-15T00:25:28.450Z,46.20
2019-01-15T00:27:55.527Z,46.30
2019-01-15T00:30:22.614Z,46.30
2019-01-15T00:32:49.692Z,46.30
2019-01-15T00:35:16.793Z,46.30
2019-01-15T00:37:43.891Z,46.30
2019-01-15T00:40:13.047Z,46.30
2019-01-15T00:42:40.137Z,46.40
2019-01-15T00:45:07.456Z,46.40
2019-01-15T00:47:34.560Z,46.40
2019-01-15T00:50:01.669Z,46.30
2019-01-15T00:52:28.733Z,46.30
2019-01-15T00:54:55.830Z,46.50
2019-01-15T00:57:22.913Z,46.40
2019-01-15T00:59:49.999Z,46.40
2019-01-15T01:02:17.077Z,46.40
2019-01-15T01:04:44.185Z,46.40
2019-01-15T01:07:11.289Z,46.50
2019-01-15T01:09:38.390Z,46.40
2019-01-15T01:12:05.508Z,46.50
2019-01-15T01:14:32.606Z,46.40
2019-01-15T01:16:59.693Z,46.40
2019-01-15T01:19:26.807Z,46.50
2019-01-15T01:21:53.927Z,46.50
2019-01-15T01:24:21.023Z,46.60
2019-01-15T01:26:48.124Z,46.50
2019-01-15T01:29:15.229Z,46.60
2019-01-15T01:31:42.302Z,46.50
2019-01-15T01:34:09.372Z,46.60
2019-01-15T01:36:36.469Z,46.50
2019-01-15T01:39:06.044Z,46.60
2019-01-15T01:41:33.168Z,46.50
2019-01-15T01:44:00.267Z,46.60
2019-01-15T01:46:27.332Z,46.60
2019-01-15T01:48:54.435Z,46.60
2019-01-15T01:51:21.497Z,46.60
2019-01-15T01:53:48.601Z,46.60
2019-01-15T01:56:15.705Z,46.60
2019-01-15T01:58:42.817Z,46.60
2019-01-15T02:01:09.888Z,46.60
2019-01-15T02:03:36.975Z,46.60
2019-01-15T02:06:04.070Z,46.50
2019-01-15T02:08:31.152Z,46.60
2019-01-15T02:10:58.266Z,46.60
2019-01-15T02:13:25.340Z,46.60
2019-01-15T02:15:52.432Z,46.60
2019-01-15T02:18:19.516Z,46.60
2019-01-15T02:20:46.608Z,46.60
2019-01-15T02:23:13.695Z,46.60
2019-01-15T02:25:40.773Z,46.60
2019-01-15T02:28:07.888Z,46.60
2019-01-15T02:30:35.036Z,46.60
2019-01-15T02:33:02.088Z,46.60
2019-01-15T02:35:29.174Z,46.60
2019-01-15T02:37:56.292Z,46.60
2019-01-15T02:40:23.389Z,46.60
2019-01-15T02:42:50.464Z,46.60
2019-01-15T02:45:19.087Z,46.60
2019-01-15T02:47:46.213Z,46.60
2019-01-15T02:50:14.673Z,46.60
2019-01-15T02:52:41.751Z,46.70
2019-01-15T02:55:09.384Z,46.60
2019-01-15T02:57:36.450Z,46.70
2019-01-15T03:00:07.745Z,46.60
2019-01-15T03:02:34.853Z,46.60
2019-01-15T03:05:01.944Z,46.60
2019-01-15T03:07:29.053Z,46.70
2019-01-15T03:09:56.152Z,46.60
2019-01-15T03:12:23.224Z,46.60
2019-01-15T03:14:50.320Z,46.70
2019-01-15T03:17:17.404Z,46.60
2019-01-15T03:19:44.530Z,46.70
2019-01-15T03:22:11.612Z,46.70
2019-01-15T03:24:38.717Z,46.70
2019-01-15T03:27:05.792Z,46.70
2019-01-15T03:29:32.874Z,46.70
2019-01-15T03:31:59.960Z,46.70
2019-01-15T03:34:27.044Z,46.70
2019-01-15T03:36:54.148Z,46.80
2019-01-15T03:39:21.260Z,46.70
2019-01-15T03:41:48.355Z,46.70
2019-01-15T03:44:15.418Z,46.70
2019-01-15T03:46:42.517Z,46.70
2019-01-15T03:49:09.590Z,46.70
2019-01-15T03:51:36.710Z,46.70
2019-01-15T03:54:03.810Z,46.70
2019-01-15T03:56:30.910Z,46.70
2019-01-15T03:58:57.980Z,46.80
2019-01-15T04:01:25.102Z,46.80
2019-01-15T04:03:52.194Z,46.70
2019-01-15T04:06:19.295Z,46.70
2019-01-15T04:08:46.399Z,46.70
2019-01-15T04:11:13.486Z,46.70
2019-01-15T04:13:40.552Z,46.80
2019-01-15T04:16:07.665Z,46.80
2019-01-15T04:18:34.736Z,46.80
2019-01-15T04:21:01.827Z,46.80
2019-01-15T04:23:28.914Z,46.70
2019-01-15T04:25:56.061Z,46.80
2019-01-15T04:28:23.162Z,46.80
2019-01-15T04:30:50.244Z,46.80
2019-01-15T04:33:17.328Z,46.80
2019-01-15T04:35:44.429Z,46.80
2019-01-15T04:38:11.514Z,46.80
2019-01-15T04:40:38.619Z,46.90
2019-01-15T04:43:05.707Z,46.90
2019-01-15T04:45:32.812Z,46.80
2019-01-15T04:47:59.902Z,46.90
2019-01-15T04:50:27.014Z,46.90
2019-01-15T04:52:58.740Z,46.90
2019-01-15T04:55:25.816Z,46.90
2019-01-15T04:57:52.964Z,46.90
2019-01-15T05:00:20.064Z,46.90
2019-01-15T05:02:47.168Z,47.00
2019-01-15T05:05:14.266Z,47.00
2019-01-15T05:07:41.347Z,47.00
2019-01-15T05:10:09.919Z,47.00
2019-01-15T05:12:37.020Z,47.00
2019-01-15T05:15:05.788Z,47.00
2019-01-15T05:17:32.904Z,47.10
2019-01-15T05:20:00.004Z,47.10
2019-01-15T05:22:27.090Z,47.10
2019-01-15T05:24:54.160Z,47.10
2019-01-15T05:27:21.220Z,47.10
2019-01-15T05:29:48.323Z,47.20
2019-01-15T05:32:15.439Z,47.20
2019-01-15T05:34:42.513Z,47.20
2019-01-15T05:37:09.592Z,47.20
2019-01-15T05:39:36.689Z,47.30
2019-01-15T05:42:03.810Z,47.20
2019-01-15T05:44:30.880Z,47.20
2019-01-15T05:46:57.981Z,47.20
2019-01-15T05:49:25.080Z,47.20
2019-01-15T05:51:52.191Z,47.30
2019-01-15T05:54:19.289Z,47.30
2019-01-15T05:56:46.385Z,47.30
2019-01-15T05:59:14.437Z,47.90
2019-01-15T06:01:41.505Z,47.30
2019-01-15T06:04:08.617Z,47.30
2019-01-15T06:06:35.681Z,47.30
2019-01-15T06:09:02.929Z,47.30
2019-01-15T06:11:30.032Z,47.40
2019-01-15T06:13:57.178Z,47.30
2019-01-15T06:16:24.248Z,47.30
2019-01-15T06:18:51.328Z,47.40
2019-01-15T06:21:18.374Z,47.40
2019-01-15T06:23:45.459Z,47.40
2019-01-15T06:26:12.532Z,47.40
2019-01-15T06:28:39.620Z,47.40
2019-01-15T06:31:06.712Z,47.40
2019-01-15T06:33:33.797Z,47.40
2019-01-15T06:36:00.917Z,47.40
2019-01-15T06:38:28.024Z,47.40
2019-01-15T06:40:55.100Z,47.40
2019-01-15T06:43:22.204Z,47.40
2019-01-15T06:45:49.264Z,47.40
2019-01-15T06:48:17.152Z,47.40
2019-01-15T06:50:43.486Z,47.40
2019-01-15T06:53:10.593Z,47.40
2019-01-15T06:55:37.681Z,47.40
2019-01-15T06:58:05.183Z,47.40
2019-01-15T07:00:32.284Z,47.40
2019-01-15T07:02:59.393Z,47.40
2019-01-15T07:05:26.520Z,47.40
2019-01-15T07:07:53.631Z,47.40
2019-01-15T07:10:23.506Z,47.40
2019-01-15T07:12:50.605Z,47.50
2019-01-15T07:15:17.684Z,47.40
2019-01-15T07:17:44.758Z,47.40
2019-01-15T07:20:12.488Z,47.40
2019-01-15T07:22:39.549Z,47.40
2019-01-15T07:25:08.462Z,47.50
2019-01-15T07:27:35.550Z,47.50
2019-01-15T07:30:03.389Z,47.40
2019-01-15T07:32:30.461Z,47.50
2019-01-15T07:34:57.565Z,47.40
2019-01-15T07:37:24.645Z,47.40
2019-01-15T07:39:51.736Z,47.40
2019-01-15T07:42:18.822Z,47.40
2019-01-15T07:44:52.526Z,47.40
2019-01-15T07:47:19.598Z,47.50
2019-01-15T07:49:46.668Z,47.50
2019-01-15T07:52:13.740Z,47.40
2019-01-15T07:54:40.830Z,47.40
2019-01-15T07:57:08.192Z,47.50
2019-01-15T07:59:35.309Z,47.50
2019-01-15T08:02:02.396Z,47.50
2019-01-15T08:04:29.505Z,47.50
2019-01-15T08:06:56.624Z,47.50
2019-01-15T08:09:23.733Z,47.50
2019-01-15T08:11:50.840Z,47.50
2019-01-15T08:14:17.945Z,47.50
2019-01-15T08:16:45.048Z,47.40
2019-01-15T08:19:12.133Z,47.50
2019-01-15T08:21:39.216Z,47.50
2019-01-15T08:24:06.313Z,47.60
2019-01-15T08:26:33.401Z,47.50
2019-01-15T08:29:00.508Z,47.60
2019-01-15T08:31:27.594Z,47.60
2019-01-15T08:33:55.029Z,47.50
2019-01-15T08:36:22.129Z,47.60
2019-01-15T08:38:49.212Z,47.50
2019-01-15T08:41:16.297Z,47.60
2019-01-15T08:43:43.408Z,47.60
2019-01-15T08:46:10.497Z,47.60
2019-01-15T08:48:37.608Z,47.70
2019-01-15T08:51:04.733Z,47.70
2019-01-15T08:53:31.879Z,47.70
2019-01-15T08:55:59.710Z,47.50
2019-01-15T08:58:26.814Z,47.70
2019-01-15T09:00:53.900Z,47.70
2019-01-15T09:03:21.086Z,47.70
2019-01-15T09:05:48.201Z,47.70
2019-01-15T09:08:15.341Z,47.70
2019-01-15T09:10:42.448Z,47.70
2019-01-15T09:13:09.536Z,47.80
2019-01-15T09:15:36.636Z,47.80
2019-01-15T09:18:03.738Z,47.80
2019-01-15T09:20:30.845Z,47.80
2019-01-15T09:22:57.946Z,47.90
2019-01-15T09:25:25.042Z,47.90
2019-01-15T09:27:52.140Z,47.90
2019-01-15T09:30:21.441Z,47.90
2019-01-15T09:32:48.545Z,48.00
2019-01-15T09:35:15.619Z,48.00
2019-01-15T09:37:42.732Z,48.00
2019-01-15T09:40:12.191Z,48.00
2019-01-15T09:42:39.284Z,48.00
2019-01-15T09:45:08.849Z,48.10
2019-01-15T09:47:35.952Z,48.10
2019-01-15T09:50:03.317Z,48.10
2019-01-15T09:52:30.412Z,48.10
2019-01-15T09:54:57.488Z,48.10
2019-01-15T09:57:24.588Z,48.20
2019-01-15T09:59:51.678Z,48.10
2019-01-15T10:02:18.770Z,48.20
2019-01-15T10:04:45.857Z,48.20
2019-01-15T10:07:12.962Z,48.20
2019-01-15T10:09:40.127Z,48.20
2019-01-15T10:12:07.191Z,48.20
2019-01-15T10:14:41.005Z,48.20
2019-01-15T10:17:01.388Z,48.20
2019-01-15T10:19:28.497Z,48.30
2019-01-15T10:21:55.624Z,48.40
2019-01-15T10:24:22.704Z,48.30
2019-01-15T10:26:49.805Z,48.40
2019-01-15T10:29:16.941Z,48.30
2019-01-15T10:31:55.981Z,48.40
2019-01-15T10:34:27.432Z,48.40
2019-01-15T10:36:53.725Z,48.50
2019-01-15T10:39:20.803Z,48.50
2019-01-15T10:41:47.896Z,48.50
2019-01-15T10:44:14.965Z,49.20
2019-01-15T10:46:42.073Z,48.50
2019-01-15T10:49:09.158Z,48.50
2019-01-15T10:51:36.249Z,48.50
2019-01-15T10:54:03.378Z,48.60
2019-01-15T10:56:30.433Z,48.50
2019-01-15T10:58:57.537Z,48.50
2019-01-15T11:01:24.625Z,48.50
2019-01-15T11:03:51.860Z,48.60
2019-01-15T11:06:18.953Z,48.50
2019-01-15T11:08:46.037Z,48.60
2019-01-15T11:11:13.104Z,48.60
2019-01-15T11:13:40.171Z,48.60
2019-01-15T11:16:07.289Z,48.60
2019-01-15T11:18:34.365Z,48.60
2019-01-15T11:21:01.437Z,48.60
2019-01-15T11:23:28.535Z,48.60
2019-01-15T11:25:55.592Z,48.60
2019-01-15T11:28:22.682Z,48.60
2019-01-15T11:30:49.752Z,48.70
2019-01-15T11:33:16.857Z,48.70
2019-01-15T11:35:43.922Z,48.70
2019-01-15T11:38:11.016Z,48.70
2019-01-15T11:40:38.113Z,48.70
2019-01-15T11:43:05.196Z,48.70
2019-01-15T11:45:32.289Z,48.70
2019-01-15T11:47:59.393Z,48.70
2019-01-15T11:50:26.504Z,48.70
2019-01-15T11:52:53.566Z,48.70
2019-01-15T11:55:21.356Z,48.80
2019-01-15T11:57:47.741Z,48.70
2019-01-15T12:00:19.233Z,48.80
2019-01-15T12:02:59.728Z,48.80
2019-01-15T12:05:33.289Z,48.80
2019-01-15T12:08:09.854Z,48.80
2019-01-15T12:10:46.545Z,48.80
2019-01-15T12:13:20.236Z,48.80
2019-01-15T12:15:54.799Z,48.80
2019-01-15T12:18:27.300Z,48.80
2019-01-15T12:20:59.955Z,48.90
2019-01-15T12:23:34.504Z,48.90
2019-01-15T12:26:37.117Z,48.90
2019-01-15T12:29:10.795Z,49.00
2019-01-15T12:31:42.537Z,49.60
2019-01-15T12:34:14.252Z,49.00
2019-01-15T12:36:51.898Z,49.00
2019-01-15T12:39:29.420Z,49.10
2019-01-15T12:42:01.148Z,49.00
2019-01-15T12:44:33.975Z,49.10
2019-01-15T12:47:09.636Z,49.10
2019-01-15T12:49:42.505Z,49.10
2019-01-15T12:52:14.237Z,49.20
2019-01-15T12:54:48.818Z,49.20
2019-01-15T12:57:23.535Z,49.20
2019-01-15T12:59:56.460Z,49.20
2019-01-15T13:02:29.300Z,49.20
2019-01-15T13:05:01.958Z,49.20
2019-01-15T13:07:38.660Z,49.20
2019-01-15T13:10:17.621Z,49.20
2019-01-15T13:12:52.336Z,49.20
2019-01-15T13:15:34.248Z,49.30
2019-01-15T13:18:02.808Z,49.50
2019-01-15T13:20:34.540Z,49.30
2019-01-15T13:23:10.092Z,49.40
2019-01-15T13:25:43.666Z,49.50
2019-01-15T13:28:20.200Z,49.40
2019-01-15T13:30:56.749Z,49.40
2019-01-15T13:33:36.604Z,49.50
2019-01-15T13:36:02.316Z,49.50
2019-01-15T13:38:37.937Z,49.60
2019-01-15T13:41:10.684Z,49.60
2019-01-15T13:43:43.698Z,49.60
2019-01-15T13:46:19.314Z,49.60
2019-01-15T13:50:52.989Z,49.60
2019-01-15T13:53:29.622Z,49.60
2019-01-15T13:56:02.331Z,49.70
2019-01-15T13:58:38.885Z,49.70
2019-01-15T14:01:10.628Z,49.70
2019-01-15T14:03:44.129Z,49.70
2019-01-15T14:06:46.893Z,49.80
2019-01-15T14:09:52.544Z,49.80
2019-01-15T14:12:40.188Z,49.70
2019-01-15T14:15:14.941Z,49.70
2019-01-15T14:18:17.704Z,49.80
2019-01-15T14:20:52.320Z,49.80
2019-01-15T14:23:24.990Z,49.90
2019-01-15T14:26:00.521Z,49.80
2019-01-15T14:28:33.285Z,49.80
2019-01-15T14:31:05.992Z,49.90
2019-01-15T14:33:37.716Z,50.00
2019-01-15T14:36:11.340Z,50.00
2019-01-15T14:38:48.000Z,50.00
2019-01-15T14:41:22.676Z,50.00
2019-01-15T14:43:57.388Z,50.10
2019-01-15T14:46:31.049Z,50.10
2019-01-15T14:49:08.625Z,50.10
2019-01-15T14:51:41.269Z,50.10
2019-01-15T14:54:14.176Z,50.10
2019-01-15T14:56:46.838Z,50.20
2019-01-15T14:59:19.621Z,50.20
2019-01-15T15:01:52.304Z,50.30
2019-01-15T15:04:25.211Z,50.30
2019-01-15T15:06:58.119Z,50.30
2019-01-15T15:09:29.894Z,50.30
2019-01-15T15:12:10.424Z,50.30
2019-01-15T15:14:55.091Z,51.00
2019-01-15T15:17:27.744Z,50.30
2019-01-15T15:19:59.461Z,50.40
2019-01-15T15:24:36.205Z,51.10
2019-01-15T15:27:07.965Z,50.40
2019-01-15T15:29:42.663Z,50.40
2019-01-15T15:32:14.389Z,50.40
2019-01-15T15:34:47.289Z,50.40
2019-01-15T15:39:23.028Z,50.50
2019-01-15T15:41:55.906Z,50.40
2019-01-15T15:46:29.780Z,50.40
2019-01-15T15:49:06.449Z,50.60
2019-01-15T15:51:39.313Z,50.50
2019-01-15T15:55:14.049Z,50.50
2019-01-15T15:57:46.884Z,50.60
2019-01-15T16:00:25.060Z,50.70
2019-01-15T16:03:02.690Z,50.70
2019-01-15T16:05:35.484Z,50.70
2019-01-15T16:08:07.220Z,50.80
2019-01-15T16:10:38.962Z,50.70
2019-01-15T16:13:14.625Z,50.80
2019-01-15T16:15:46.349Z,50.80
2019-01-15T16:18:19.866Z,50.80
2019-01-15T16:20:52.719Z,50.70
2019-01-15T16:23:25.838Z,50.80
2019-01-15T16:25:57.584Z,50.90
2019-01-15T16:28:34.300Z,50.90
2019-01-15T16:31:07.959Z,50.90
2019-01-15T16:33:55.574Z,50.90
2019-01-15T16:36:33.261Z,50.90
2019-01-15T16:39:06.017Z,51.00
2019-01-15T16:41:37.765Z,50.60
2019-01-15T16:46:15.540Z,50.90
2019-01-15T16:49:18.296Z,51.00
2019-01-15T16:51:50.030Z,51.00
2019-01-15T16:56:28.845Z,51.00
2019-01-15T16:59:03.528Z,51.10
2019-01-15T17:01:42.098Z,51.10
2019-01-15T17:04:15.677Z,51.30
2019-01-15T17:06:48.592Z,51.20
2019-01-15T17:09:21.465Z,51.10
2019-01-15T17:11:54.369Z,51.10
2019-01-15T17:16:33.506Z,51.10
2019-01-15T17:18:59.885Z,51.20
2019-01-15T17:21:31.611Z,51.10
2019-01-15T17:24:05.133Z,51.20
2019-01-15T17:26:37.837Z,51.20
2019-01-15T17:29:14.396Z,51.20
2019-01-15T17:31:46.156Z,51.30
2019-01-15T17:34:25.685Z,51.30
2019-01-15T17:37:03.253Z,51.30
2019-01-15T17:39:35.002Z,51.40
2019-01-15T17:42:07.909Z,51.30
2019-01-15T17:44:45.696Z,51.40
2019-01-15T17:47:23.213Z,51.50
2019-01-15T17:49:54.941Z,51.40
2019-01-15T17:52:27.768Z,51.40
2019-01-15T17:54:59.491Z,51.40
2019-01-15T17:57:31.214Z,51.40
2019-01-15T18:00:03.743Z,51.50
2019-01-15T18:02:36.657Z,51.50
2019-01-15T18:07:11.062Z,51.50
2019-01-15T18:09:42.797Z,51.60
2019-01-15T18:13:20.550Z,51.60
2019-01-15T18:15:52.277Z,51.70
2019-01-15T18:18:24.019Z,51.50
2019-01-15T18:20:56.713Z,51.60
2019-01-15T18:23:36.224Z,51.70
2019-01-15T18:26:07.949Z,51.60
2019-01-15T18:28:45.709Z,51.60
2019-01-15T18:31:20.469Z,51.70
2019-01-15T18:33:56.133Z,51.70
2019-01-15T18:36:31.840Z,51.80
2019-01-15T18:39:04.422Z,51.80
2019-01-15T18:41:54.075Z,51.80
2019-01-15T18:44:27.024Z,52.40
2019-01-15T18:47:00.711Z,51.80
2019-01-15T18:49:33.356Z,51.80
2019-01-15T18:53:08.065Z,51.80
2019-01-15T18:55:39.785Z,51.80
2019-01-15T18:58:12.461Z,52.00
2019-01-15T19:01:03.006Z,51.90
2019-01-15T19:03:34.721Z,51.90
2019-01-15T19:06:07.526Z,51.90
2019-01-15T19:08:42.090Z,51.90
2019-01-15T19:11:23.774Z,52.00
2019-01-15T19:13:55.498Z,52.00
2019-01-15T19:16:30.284Z,52.00
2019-01-15T19:19:02.849Z,52.00
2019-01-15T19:21:36.535Z,52.00
2019-01-15T19:24:09.324Z,52.00
2019-01-15T19:26:47.986Z,52.10
2019-01-15T19:29:20.941Z,52.10
2019-01-15T19:31:53.560Z,52.10
2019-01-15T19:34:27.124Z,52.20
2019-01-15T19:37:01.672Z,52.10
2019-01-15T19:40:38.588Z,52.10
2019-01-15T19:43:11.432Z,52.10
2019-01-15T19:45:44.132Z,52.10
2019-01-15T19:48:16.845Z,52.20
2019-01-15T19:50:54.524Z,52.20
2019-01-15T19:53:29.042Z,52.20
2019-01-15T19:56:02.597Z,52.30
2019-01-15T19:58:35.180Z,52.30
2019-01-15T20:01:10.871Z,52.20
2019-01-15T20:03:46.548Z,52.20
2019-01-15T20:06:18.277Z,52.30
2019-01-15T20:08:53.968Z,52.30
2019-01-15T20:11:30.532Z,52.30
2019-01-15T20:14:03.381Z,52.40
2019-01-15T20:16:38.441Z,52.50
2019-01-15T20:19:11.961Z,52.30
2019-01-15T20:21:44.548Z,52.40
2019-01-15T20:24:20.149Z,52.50
2019-01-15T20:26:51.860Z,52.50
2019-01-15T20:29:29.404Z,52.50
2019-01-15T20:34:05.262Z,52.50
2019-01-15T20:36:54.922Z,52.50
2019-01-15T20:41:28.741Z,52.50
2019-01-15T20:46:04.468Z,52.60
2019-01-15T20:48:36.204Z,52.60
2019-01-15T20:51:09.877Z,53.20
2019-01-15T20:53:42.612Z,52.60
2019-01-15T20:56:15.460Z,52.70
2019-01-15T20:58:50.082Z,52.70
2019-01-15T21:01:38.686Z,52.60
2019-01-15T21:04:11.508Z,52.60
2019-01-15T21:06:48.201Z,53.10
2019-01-15T21:09:21.080Z,52.70
2019-01-15T21:11:58.572Z,52.80
2019-01-15T21:14:34.306Z,52.80
2019-01-15T21:17:06.018Z,52.90
2019-01-15T21:19:38.636Z,52.80
2019-01-15T21:22:11.547Z,52.90
2019-01-15T21:24:44.488Z,52.80
2019-01-15T21:27:16.189Z,52.90
2019-01-15T21:29:54.769Z,52.90
2019-01-15T21:32:27.505Z,52.80
2019-01-15T21:35:00.424Z,52.90
2019-01-15T21:37:36.161Z,52.90
2019-01-15T21:40:10.922Z,53.00
2019-01-15T21:42:45.621Z,53.10
2019-01-15T21:45:23.325Z,53.00
2019-01-15T21:47:56.965Z,53.00
2019-01-15T21:50:30.633Z,53.00
2019-01-15T21:53:03.537Z,53.10
2019-01-15T21:55:36.214Z,53.10
2019-01-15T21:58:08.997Z,53.10
2019-01-15T22:00:50.568Z,53.10
2019-01-15T22:03:54.101Z,53.10
2019-01-15T22:06:27.805Z,53.10
2019-01-15T22:09:05.320Z,53.10
2019-01-15T22:11:41.898Z,53.20
2019-01-15T22:14:14.653Z,53.20
2019-01-15T22:18:48.477Z,53.30
2019-01-15T22:21:23.108Z,53.30
2019-01-15T22:23:54.846Z,53.30
2019-01-15T22:26:27.657Z,53.20
2019-01-15T22:29:02.290Z,53.20
2019-01-15T22:31:35.061Z,53.20
2019-01-15T22:35:10.873Z,53.30
2019-01-15T22:37:49.422Z,53.30
2019-01-15T22:40:23.029Z,53.30
2019-01-15T22:42:55.866Z,53.30
2019-01-15T22:45:36.542Z,53.40
2019-01-15T22:48:12.232Z,53.30
2019-01-15T22:51:49.965Z,53.30
2019-01-15T22:56:26.905Z,53.30
2019-01-15T22:59:03.625Z,53.30
2019-01-15T23:01:36.288Z,53.30
2019-01-15T23:04:09.188Z,53.30
2019-01-15T23:06:40.926Z,53.40
2019-01-15T23:09:16.677Z,53.40
2019-01-15T23:11:49.452Z,53.40
2019-01-15T23:16:24.340Z,53.30
2019-01-15T23:18:56.066Z,53.40
2019-01-15T23:21:34.796Z,53.50
2019-01-15T23:24:09.336Z,53.40
2019-01-15T23:26:42.141Z,53.40
2019-01-15T23:29:15.752Z,53.50
2019-01-15T23:31:53.449Z,53.60
2019-01-15T23:34:25.990Z,53.50
2019-01-15T23:36:57.721Z,53.40
2019-01-15T23:39:30.341Z,53.40
2019-01-15T23:42:05.004Z,53.40
2019-01-15T23:46:38.821Z,53.40
2019-01-15T23:49:10.545Z,53.40
2019-01-15T23:51:43.223Z,53.50
2019-01-15T23:54:16.145Z,53.50
2019-01-15T23:56:47.849Z,53.50
2019-01-15T23:59:21.501Z,53.50
